Wetterdaten: aktuell Donnerstag, 04.06.2020 07:50
Datum Zeit Temp. A. Temp. A. min Feuchte A. Luftdruck Regen Wind Richtung Richtung Sonnenschein Solar Taupunkt Windchill Windben
04.06.2020 07:50 15,1 C 15,1 C 91 % 1003,6 hPa 0,2 l/m 0,3 km/h (0 Bft) S 186 0 min 0 W/m 13,6 C 15,1 C 3,2 km/h (1 Bft)
04.06.2020 07:45 15,1 C 15,1 C 91 % 1003,7 hPa 0,0 l/m 0,9 km/h (0 Bft) S-SO 166 0 min 0 W/m 13,6 C 15,1 C 6,4 km/h (2 Bft)
04.06.2020 07:40 15,2 C 15,2 C 91 % 1003,7 hPa 0,4 l/m 1,4 km/h (1 Bft) S-SO 166 0 min 0 W/m 13,7 C 15,2 C 6,4 km/h (2 Bft)
04.06.2020 07:35 15,2 C 15,1 C 90 % 1003,7 hPa 0,4 l/m 0,1 km/h (0 Bft) SW 219 0 min 0 W/m 13,6 C 15,2 C 1,6 km/h (1 Bft)
04.06.2020 07:30 15,2 C 15,2 C 90 % 1003,7 hPa 0,0 l/m 0,1 km/h (0 Bft) S 171 0 min 0 W/m 13,6 C 15,2 C 1,6 km/h (1 Bft)
04.06.2020 07:25 15,2 C 15,2 C 90 % 1003,7 hPa 0,0 l/m 0,1 km/h (0 Bft) S 170 0 min 0 W/m 13,6 C 15,2 C 1,6 km/h (1 Bft)
04.06.2020 07:20 15,2 C 15,2 C 90 % 1003,7 hPa 0,2 l/m 0,1 km/h (0 Bft) S 171 0 min 0 W/m 13,6 C 15,2 C 1,6 km/h (1 Bft)
04.06.2020 07:15 15,2 C 15,2 C 89 % 1003,6 hPa 0,0 l/m 0,4 km/h (0 Bft) S-SO 161 0 min 0 W/m 13,4 C 15,2 C 6,4 km/h (2 Bft)
04.06.2020 07:10 15,2 C 15,2 C 89 % 1003,6 hPa 0,0 l/m 0,4 km/h (0 Bft) S-SO 164 0 min 0 W/m 13,4 C 15,2 C 6,4 km/h (2 Bft)
04.06.2020 07:05 15,2 C 15,2 C 89 % 1003,7 hPa 0,0 l/m 0,8 km/h (0 Bft) S-SO 166 0 min 0 W/m 13,4 C 15,2 C 6,4 km/h (2 Bft)
04.06.2020 07:00 15,3 C 15,3 C 89 % 1003,8 hPa 0,0 l/m 0,5 km/h (0 Bft) S 186 0 min 0 W/m 13,5 C 15,3 C 4,8 km/h (1 Bft)
04.06.2020 06:55 15,3 C 15,3 C 89 % 1003,7 hPa 0,0 l/m 0,3 km/h (0 Bft) S-SO 168 0 min 0 W/m 13,5 C 15,3 C 4,8 km/h (1 Bft)
04.06.2020 06:50 15,3 C 15,3 C 89 % 1003,8 hPa 0,0 l/m 0,0 km/h (0 Bft) S-SO 163 0 min 0 W/m 13,5 C 15,3 C 1,6 km/h (1 Bft)
04.06.2020 06:45 15,3 C 15,3 C 88 % 1003,9 hPa 0,0 l/m 0,0 km/h (0 Bft) S-SO 165 0 min 0 W/m 13,3 C 15,3 C 0,0 km/h (0 Bft)
04.06.2020 06:40 15,4 C 15,4 C 88 % 1003,9 hPa 0,0 l/m 0,0 km/h (0 Bft) S-SO 164 0 min 0 W/m 13,4 C 15,4 C 0,0 km/h (0 Bft)
04.06.2020 06:35 15,4 C 15,4 C 88 % 1003,9 hPa 0,0 l/m 0,1 km/h (0 Bft) S-SO 164 0 min 0 W/m 13,4 C 15,4 C 1,6 km/h (1 Bft)
04.06.2020 06:30 15,5 C 15,5 C 87 % 1003,9 hPa 0,0 l/m 0,4 km/h (0 Bft) S 178 0 min 0 W/m 13,3 C 15,5 C 3,2 km/h (1 Bft)
04.06.2020 06:25 15,6 C 15,6 C 87 % 1003,9 hPa 0,0 l/m 0,2 km/h (0 Bft) S 185 0 min 0 W/m 13,4 C 15,6 C 1,6 km/h (1 Bft)
04.06.2020 06:20 15,7 C 15,6 C 86 % 1004,0 hPa 0,0 l/m 0,1 km/h (0 Bft) S 169 0 min 0 W/m 13,4 C 15,7 C 1,6 km/h (1 Bft)
04.06.2020 06:15 15,7 C 15,7 C 86 % 1004,0 hPa 0,0 l/m 0,7 km/h (0 Bft) S 173 0 min 0 W/m 13,4 C 15,7 C 3,2 km/h (1 Bft)
04.06.2020 06:10 15,9 C 15,9 C 85 % 1004,1 hPa 0,2 l/m 0,4 km/h (0 Bft) S 179 0 min 0 W/m 13,4 C 15,9 C 1,6 km/h (1 Bft)
04.06.2020 06:05 16,1 C 16,1 C 84 % 1004,1 hPa 0,0 l/m 0,2 km/h (0 Bft) S 174 0 min 0 W/m 13,4 C 16,1 C 1,6 km/h (1 Bft)
04.06.2020 06:00 16,2 C 16,2 C 84 % 1004,1 hPa 0,0 l/m 0,6 km/h (0 Bft) S 178 0 min 0 W/m 13,5 C 16,2 C 3,2 km/h (1 Bft)
04.06.2020 05:55 16,3 C 16,3 C 83 % 1004,1 hPa 0,2 l/m 0,7 km/h (0 Bft) S-SW 203 0 min 0 W/m 13,4 C 16,3 C 4,8 km/h (1 Bft)
04.06.2020 05:50 16,5 C 16,5 C 82 % 1004,2 hPa 0,0 l/m 0,2 km/h (0 Bft) S 179 0 min 0 W/m 13,4 C 16,5 C 3,2 km/h (1 Bft)
04.06.2020 05:45 16,6 C 16,6 C 81 % 1004,2 hPa 0,0 l/m 0,8 km/h (0 Bft) S-SO 160 0 min 0 W/m 13,3 C 16,6 C 6,4 km/h (2 Bft)
04.06.2020 05:40 16,6 C 16,5 C 79 % 1004,2 hPa 0,0 l/m 0,8 km/h (0 Bft) S-SO 163 0 min 0 W/m 12,9 C 16,6 C 4,8 km/h (1 Bft)
04.06.2020 05:35 16,6 C 16,5 C 78 % 1004,3 hPa 0,0 l/m 0,4 km/h (0 Bft) S 177 0 min 0 W/m 12,7 C 16,6 C 1,6 km/h (1 Bft)
04.06.2020 05:30 16,5 C 16,5 C 78 % 1004,3 hPa 0,0 l/m 0,6 km/h (0 Bft) S 181 0 min 0 W/m 12,6 C 16,5 C 1,6 km/h (1 Bft)
04.06.2020 05:25 16,6 C 16,6 C 78 % 1004,3 hPa 0,0 l/m 0,6 km/h (0 Bft) S 175 0 min 0 W/m 12,7 C 16,6 C 1,6 km/h (1 Bft)
04.06.2020 05:20 16,6 C 16,6 C 78 % 1004,4 hPa 0,0 l/m 0,4 km/h (0 Bft) S 180 0 min 0 W/m 12,7 C 16,6 C 3,2 km/h (1 Bft)
04.06.2020 05:15 16,6 C 16,6 C 78 % 1004,5 hPa 0,0 l/m 0,0 km/h (0 Bft) S-SW 198 0 min 0 W/m 12,7 C 16,6 C 0,0 km/h (0 Bft)
04.06.2020 05:10 16,7 C 16,6 C 78 % 1004,5 hPa 0,0 l/m 0,0 km/h (0 Bft) S-SW 207 0 min 0 W/m 12,8 C 16,7 C 0,0 km/h (0 Bft)
04.06.2020 05:05 16,7 C 16,7 C 77 % 1004,5 hPa 0,0 l/m 0,0 km/h (0 Bft) S-SW 207 0 min 0 W/m 12,6 C 16,7 C 1,6 km/h (1 Bft)
04.06.2020 05:00 16,7 C 16,7 C 77 % 1004,5 hPa 0,0 l/m 0,6 km/h (0 Bft) S 180 0 min 0 W/m 12,6 C 16,7 C 1,6 km/h (1 Bft)
04.06.2020 04:55 16,7 C 16,7 C 77 % 1004,4 hPa 0,0 l/m 0,6 km/h (0 Bft) S 175 0 min 0 W/m 12,6 C 16,7 C 3,2 km/h (1 Bft)
04.06.2020 04:50 16,7 C 16,7 C 77 % 1004,4 hPa 0,0 l/m 0,5 km/h (0 Bft) S 178 0 min 0 W/m 12,6 C 16,7 C 1,6 km/h (1 Bft)
04.06.2020 04:45 16,7 C 16,6 C 78 % 1004,4 hPa 0,0 l/m 1,3 km/h (1 Bft) S 180 0 min 0 W/m 12,8 C 16,7 C 3,2 km/h (1 Bft)
04.06.2020 04:40 16,6 C 16,6 C 78 % 1004,5 hPa 0,0 l/m 1,0 km/h (0 Bft) S 186 0 min 0 W/m 12,7 C 16,6 C 4,8 km/h (1 Bft)
04.06.2020 04:35 16,6 C 16,5 C 78 % 1004,5 hPa 0,0 l/m 1,4 km/h (1 Bft) S-SW 192 0 min 0 W/m 12,7 C 16,6 C 6,4 km/h (2 Bft)
04.06.2020 04:30 16,5 C 16,4 C 79 % 1004,4 hPa 0,0 l/m 1,1 km/h (1 Bft) S-SW 194 0 min 0 W/m 12,8 C 16,5 C 3,2 km/h (1 Bft)
04.06.2020 04:25 16,4 C 16,3 C 79 % 1004,5 hPa 0,0 l/m 0,7 km/h (0 Bft) S-SO 158 0 min 0 W/m 12,7 C 16,4 C 3,2 km/h (1 Bft)
04.06.2020 04:20 16,3 C 16,2 C 80 % 1004,5 hPa 0,0 l/m 1,0 km/h (0 Bft) S-SW 207 0 min 0 W/m 12,8 C 16,3 C 6,4 km/h (2 Bft)
04.06.2020 04:15 16,2 C 16,1 C 80 % 1004,5 hPa 0,0 l/m 1,6 km/h (1 Bft) SO 144 0 min 0 W/m 12,7 C 16,2 C 6,4 km/h (2 Bft)
04.06.2020 04:10 16,1 C 16,0 C 81 % 1004,6 hPa 0,0 l/m 3,0 km/h (1 Bft) SO 146 0 min 0 W/m 12,8 C 16,1 C 11,3 km/h (2 Bft)
04.06.2020 04:05 16,0 C 15,9 C 82 % 1004,6 hPa 0,0 l/m 2,4 km/h (1 Bft) S 186 0 min 0 W/m 12,9 C 16,0 C 6,4 km/h (2 Bft)
04.06.2020 04:00 16,0 C 15,9 C 82 % 1004,6 hPa 0,0 l/m 2,3 km/h (1 Bft) S-SW 198 0 min 0 W/m 12,9 C 16,0 C 4,8 km/h (1 Bft)
04.06.2020 03:55 15,9 C 15,9 C 82 % 1004,6 hPa 0,0 l/m 1,9 km/h (1 Bft) SW 217 0 min 0 W/m 12,8 C 15,9 C 6,4 km/h (2 Bft)
04.06.2020 03:50 15,9 C 15,9 C 83 % 1004,6 hPa 0,0 l/m 0,0 km/h (0 Bft) S 180 0 min 0 W/m 13,0 C 15,9 C 0,0 km/h (0 Bft)
04.06.2020 03:45 15,9 C 15,9 C 83 % 1004,7 hPa 0,0 l/m 0,0 km/h (0 Bft) S 170 0 min 0 W/m 13,0 C 15,9 C 0,0 km/h (0 Bft)
04.06.2020 03:40 15,9 C 15,9 C 83 % 1004,7 hPa 0,0 l/m 0,0 km/h (0 Bft) S-SO 148 0 min 0 W/m 13,0 C 15,9 C 0,0 km/h (0 Bft)
04.06.2020 03:35 15,9 C 15,9 C 83 % 1004,8 hPa 0,0 l/m 0,0 km/h (0 Bft) SO 146 0 min 0 W/m 13,0 C 15,9 C 0,0 km/h (0 Bft)
04.06.2020 03:30 15,9 C 15,9 C 83 % 1004,8 hPa 0,0 l/m 0,0 km/h (0 Bft) SO 132 0 min 0 W/m 13,0 C 15,9 C 0,0 km/h (0 Bft)
04.06.2020 03:25 15,9 C 15,9 C 83 % 1004,9 hPa 0,0 l/m 0,0 km/h (0 Bft) SO 132 0 min 0 W/m 13,0 C 15,9 C 0,0 km/h (0 Bft)
04.06.2020 03:20 15,9 C 15,9 C 82 % 1005,0 hPa 0,0 l/m 0,0 km/h (0 Bft) SO 132 0 min 0 W/m 12,8 C 15,9 C 0,0 km/h (0 Bft)
04.06.2020 03:15 15,9 C 15,9 C 82 % 1005,2 hPa 0,0 l/m 0,0 km/h (0 Bft) SO 130 0 min 0 W/m 12,8 C 15,9 C 0,0 km/h (0 Bft)
04.06.2020 03:10 16,0 C 16,0 C 82 % 1005,2 hPa 0,0 l/m 0,1 km/h (0 Bft) SO 130 0 min 0 W/m 12,9 C 16,0 C 1,6 km/h (1 Bft)
04.06.2020 03:05 16,1 C 16,1 C 81 % 1005,3 hPa 0,0 l/m 0,0 km/h (0 Bft) SO 130 0 min 0 W/m 12,8 C 16,1 C 0,0 km/h (0 Bft)
04.06.2020 03:00 16,1 C 16,1 C 81 % 1005,4 hPa 0,0 l/m 0,0 km/h (0 Bft) SO 130 0 min 0 W/m 12,8 C 16,1 C 0,0 km/h (0 Bft)
04.06.2020 02:55 16,2 C 16,2 C 81 % 1005,4 hPa 0,0 l/m 0,0 km/h (0 Bft) SO 130 0 min 0 W/m 12,9 C 16,2 C 0,0 km/h (0 Bft)
04.06.2020 02:50 16,4 C 16,4 C 80 % 1005,4 hPa 0,0 l/m 0,0 km/h (0 Bft) SO 130 0 min 0 W/m 12,9 C 16,4 C 0,0 km/h (0 Bft)
04.06.2020 02:45 16,5 C 16,5 C 80 % 1005,4 hPa 0,0 l/m 0,0 km/h (0 Bft) SO 130 0 min 0 W/m 13,0 C 16,5 C 0,0 km/h (0 Bft)
04.06.2020 02:40 16,6 C 16,6 C 80 % 1005,4 hPa 0,0 l/m 0,0 km/h (0 Bft) SO 130 0 min 0 W/m 13,1 C 16,6 C 0,0 km/h (0 Bft)
04.06.2020 02:35 16,8 C 16,8 C 80 % 1005,4 hPa 0,0 l/m 0,0 km/h (0 Bft) SO 130 0 min 0 W/m 13,3 C 16,8 C 0,0 km/h (0 Bft)
04.06.2020 02:30 16,9 C 16,9 C 79 % 1005,3 hPa 0,0 l/m 0,1 km/h (0 Bft) SO 130 0 min 0 W/m 13,2 C 16,9 C 1,6 km/h (1 Bft)
04.06.2020 02:25 17,0 C 16,9 C 79 % 1005,4 hPa 0,0 l/m 0,1 km/h (0 Bft) SO 130 0 min 0 W/m 13,3 C 17,0 C 1,6 km/h (1 Bft)
04.06.2020 02:20 17,1 C 17,1 C 78 % 1005,4 hPa 0,0 l/m 0,0 km/h (0 Bft) SO 130 0 min 0 W/m 13,2 C 17,1 C 0,0 km/h (0 Bft)
04.06.2020 02:15 17,2 C 17,2 C 78 % 1005,4 hPa 0,0 l/m 0,0 km/h (0 Bft) SO 130 0 min 0 W/m 13,3 C 17,2 C 0,0 km/h (0 Bft)
04.06.2020 02:10 17,2 C 17,2 C 78 % 1005,5 hPa 0,0 l/m 0,0 km/h (0 Bft) SO 130 0 min 0 W/m 13,3 C 17,2 C 0,0 km/h (0 Bft)
04.06.2020 02:05 17,3 C 17,3 C 77 % 1005,5 hPa 0,0 l/m 0,0 km/h (0 Bft) SO 130 0 min 0 W/m 13,2 C 17,3 C 0,0 km/h (0 Bft)
04.06.2020 02:00 17,4 C 17,4 C 77 % 1005,5 hPa 0,0 l/m 0,0 km/h (0 Bft) SO 130 0 min 0 W/m 13,3 C 17,4 C 0,0 km/h (0 Bft)
04.06.2020 01:55 17,6 C 17,6 C 76 % 1005,5 hPa 0,0 l/m 0,0 km/h (0 Bft) SO 130 0 min 0 W/m 13,3 C 17,6 C 0,0 km/h (0 Bft)
04.06.2020 01:50 17,6 C 17,6 C 76 % 1005,6 hPa 0,0 l/m 0,0 km/h (0 Bft) SO 131 0 min 0 W/m 13,3 C 17,6 C 0,0 km/h (0 Bft)
04.06.2020 01:45 17,7 C 17,7 C 76 % 1005,7 hPa 0,0 l/m 0,0 km/h (0 Bft) SO 131 0 min 0 W/m 13,4 C 17,7 C 0,0 km/h (0 Bft)
04.06.2020 01:40 17,7 C 17,7 C 76 % 1005,8 hPa 0,0 l/m 0,0 km/h (0 Bft) SO 131 0 min 0 W/m 13,4 C 17,7 C 0,0 km/h (0 Bft)
04.06.2020 01:35 17,7 C 17,7 C 76 % 1005,9 hPa 0,0 l/m 0,0 km/h (0 Bft) SO 131 0 min 0 W/m 13,4 C 17,7 C 0,0 km/h (0 Bft)
04.06.2020 01:30 17,7 C 17,7 C 75 % 1006,0 hPa 0,0 l/m 0,0 km/h (0 Bft) SO 131 0 min 0 W/m 13,2 C 17,7 C 0,0 km/h (0 Bft)
04.06.2020 01:25 17,8 C 17,7 C 75 % 1005,9 hPa 0,0 l/m 0,0 km/h (0 Bft) SO 129 0 min 0 W/m 13,3 C 17,8 C 0,0 km/h (0 Bft)
04.06.2020 01:20 17,7 C 17,7 C 75 % 1006,1 hPa 0,0 l/m 0,0 km/h (0 Bft) SO 126 0 min 0 W/m 13,2 C 17,7 C 0,0 km/h (0 Bft)
04.06.2020 01:15 17,7 C 17,7 C 75 % 1006,2 hPa 0,0 l/m 0,0 km/h (0 Bft) SO 127 0 min 0 W/m 13,2 C 17,7 C 1,6 km/h (1 Bft)
04.06.2020 01:10 17,7 C 17,7 C 75 % 1006,3 hPa 0,0 l/m 0,5 km/h (0 Bft) N-NW 328 0 min 0 W/m 13,2 C 17,7 C 3,2 km/h (1 Bft)
04.06.2020 01:05 17,7 C 17,7 C 75 % 1006,4 hPa 0,0 l/m 1,6 km/h (1 Bft) N-NW 327 0 min 0 W/m 13,2 C 17,7 C 4,8 km/h (1 Bft)
04.06.2020 01:00 17,7 C 17,7 C 75 % 1006,5 hPa 0,0 l/m 1,3 km/h (1 Bft) NW 306 0 min 0 W/m 13,2 C 17,7 C 3,2 km/h (1 Bft)
04.06.2020 00:55 17,8 C 17,8 C 76 % 1006,5 hPa 0,0 l/m 0,3 km/h (0 Bft) NW 312 0 min 0 W/m 13,5 C 17,8 C 3,2 km/h (1 Bft)
04.06.2020 00:50 17,9 C 17,9 C 76 % 1006,6 hPa 0,0 l/m 0,0 km/h (0 Bft) N 9 0 min 0 W/m 13,6 C 17,9 C 0,0 km/h (0 Bft)
04.06.2020 00:45 17,9 C 17,9 C 75 % 1006,7 hPa 0,0 l/m 0,0 km/h (0 Bft) NO 38 0 min 0 W/m 13,4 C 17,9 C 1,6 km/h (1 Bft)
04.06.2020 00:40 18,0 C 18,0 C 75 % 1006,8 hPa 0,0 l/m 0,6 km/h (0 Bft) NO 41 0 min 0 W/m 13,5 C 18,0 C 4,8 km/h (1 Bft)
04.06.2020 00:35 18,1 C 18,1 C 75 % 1006,8 hPa 0,0 l/m 0,0 km/h (0 Bft) S-SO 165 0 min 0 W/m 13,6 C 18,1 C 0,0 km/h (0 Bft)
04.06.2020 00:30 18,1 C 18,1 C 75 % 1006,8 hPa 0,0 l/m 0,0 km/h (0 Bft) S 170 0 min 0 W/m 13,6 C 18,1 C 0,0 km/h (0 Bft)
04.06.2020 00:25 18,1 C 18,1 C 74 % 1006,9 hPa 0,0 l/m 0,0 km/h (0 Bft) S 170 0 min 0 W/m 13,4 C 18,1 C 0,0 km/h (0 Bft)
04.06.2020 00:20 18,2 C 18,2 C 74 % 1007,1 hPa 0,0 l/m 0,0 km/h (0 Bft) S 170 0 min 0 W/m 13,5 C 18,2 C 0,0 km/h (0 Bft)
04.06.2020 00:15 18,2 C 18,2 C 75 % 1007,2 hPa 0,0 l/m 0,0 km/h (0 Bft) S 172 0 min 0 W/m 13,7 C 18,2 C 0,0 km/h (0 Bft)
04.06.2020 00:10 18,2 C 18,2 C 74 % 1007,3 hPa 0,0 l/m 0,3 km/h (0 Bft) S 172 0 min 0 W/m 13,5 C 18,2 C 3,2 km/h (1 Bft)
04.06.2020 00:05 18,3 C 18,3 C 74 % 1007,4 hPa 0,0 l/m 0,4 km/h (0 Bft) S 170 0 min 0 W/m 13,6 C 18,3 C 8,0 km/h (2 Bft)
04.06.2020 00:00 18,3 C 18,2 C 74 % 1007,4 hPa 0,0 l/m 0,0 km/h (0 Bft) S 182 0 min 0 W/m 13,6 C 18,3 C 1,6 km/h (1 Bft)
_ Min-Zeit 07:35 07:35 00:00 07:10 - 00:00 - - - - 04:50 07:45 00:15
Minimum _ 15.1 C 15.1 C 74 % 1003.6 hPa - 0.0 km/h (0 Bft) - - - - 12.6 C 15.1 C 0.0 km/h (0 Bft)
_ Max-Zeit 00:00 00:05 07:40 00:00 07:35 04:10 - - 00:00 00:00 07:40 00:00 04:10
Maximum _ 18.3 C 18.3 C 91 % 1007.4 hPa 0.4 l/m 3.0 km/h
SO (1 Bft)
- - 0 min 0 W/m 13.7 C 18.3 C 11.3 km/h
S-SO (2 Bft)
Durchschnitt _ 16.6 C 16.5 C 81 % 1005.0 hPa #1.6 l/m 0.4 km/h (0 Bft) S-SW - #0 min. 0 W/m 13.2 C 16.6 C 2.2 km/h (1 Bft)